Ducklington, United Kingdom
Current Conditions -  °F | °C
As of 8:12 PM on Friday 28 Nov 2014 (Local Time) from EGVN Reporting Station
Haze Haze  
Wind Chill: 50°   Ceiling: 10000
Heat Index: 50°   Visibility: 5mi
Dew Point: 46°   Wind: 12mph
Humidity: 87%   Direction: 60°ENE
Pressure: 29.68"   Gusts: NA
Location:  51.77°N, 1.48°W
Report Text: EGVN 282012Z 06010KT 8000 HZ SCT009 BKN100 BKN220 10/08 Q1005 GRN BECMG 6000 BR FEW010 WHT
Loading
Personal Weather Stations






























Interactive Weather Map New forecast layout! Learn more

10-Day Weather Forecast

Advertisements
Track Severe Weather on mobile